Impacts METAR Board
IDs:

KPDX - Portland Intl Arpt, OR, US

Updated at: 0600 UTC 20 Oct 2018
Potential Impact None Slight Moderate High
Time 19/18Z 19/19Z 19/20Z 19/21Z 19/22Z 19/23Z 20/00Z 20/01Z 20/02Z 20/03Z 20/04Z 20/05Z 20/06Z
Temp49 53 59 63 68 69 70 66 62 57 58 56 53
Dewpt47 47 47 47 47 45 48 50 49 49 49 48 48
Altim30.30 30.29 30.27 30.25 30.23 30.21 30.19 30.19 30.19 30.20 30.20 30.21 30.22
VIS0.5 10 10 10 10 10 10 10 10 10 10 10 10
CIG3 -- -- -- -- -- -- -- -- -- -- -- --
CoverOVCSCTFEWFEWCLRCLRCLRCLRCLRCLRCLRCLRCLR
FltCatLIFRVFRVFRVFRVFRVFRVFRVFRVFRVFRVFRVFRVFR
WXBR------------------------
WDir2802700280280280280280340290310290300
WSpd5 5 3 7 5 5 6 6 3 4 8 4 3
WGst-- -- -- -- -- -- -- -- -- -- -- -- --
Raw hourly METARs
KPDX 191753Z 28005KT 1/2SM R10R/P6000FT BR OVC003 09/08 A3030 RMK AO2 SFC VIS 1 SLP258 T00940083 10094 20072 51007
KPDX 191901Z 27005KT 10SM SCT004 SCT100 12/08 A3029 RMK AO2 T01170083
KPDX 191953Z VRB03KT 10SM FEW030 FEW250 15/08 A3027 RMK AO2 SLP251 T01500083
KPDX 192053Z 28007KT 10SM FEW250 17/08 A3025 RMK AO2 SLP243 T01720083 58015
KPDX 192153Z 28005KT 10SM CLR 20/08 A3023 RMK AO2 SLP234 T02000083
KPDX 192253Z 28005KT 10SM CLR 21/07 A3021 RMK AO2 SLP228 T02060072
KPDX 192353Z 28006KT 10SM CLR 21/09 A3019 RMK AO2 SLP222 T02110089 10211 20094 56019
KPDX 200053Z 28006KT 10SM CLR 19/10 A3019 RMK AO2 SLP221 T01890100
KPDX 200153Z 34003KT 10SM CLR 17/09 A3019 RMK AO2 SLP224 T01670094
KPDX 200253Z 29004KT 10SM CLR 14/09 A3020 RMK AO2 SLP226 T01390094 53003
KPDX 200353Z 31008KT 10SM CLR 14/09 A3020 RMK AO2 SLP228 T01440094
KPDX 200453Z 29004KT 10SM CLR 13/09 A3021 RMK AO2 SLP230 T01330089
KPDX 200553Z 30003KT 10SM CLR 12/09 A3022 RMK AO2 SLP231 T01170089 10211 20117 51005 $



Page loaded:  06:21 UTC  |   11:21 PM Pacific  |   12:21 AM Mountain  |   01:21 AM Central  |   02:21 AM Eastern

 

ADVISORIES

FORECASTS

FORECASTS

OBSERVATIONS

USER TOOLS

ABOUT US